createdAt,value
2019-05-10T00:00:19.239Z,76.65
2019-05-10T00:03:08.635Z,76.38
2019-05-10T00:05:58.053Z,76.71
2019-05-10T00:08:47.284Z,76.24
2019-05-10T00:11:41.019Z,75.94
2019-05-10T00:14:32.380Z,76.11
2019-05-10T00:17:17.766Z,75.90
2019-05-10T00:19:49.323Z,76.24
2019-05-10T00:22:21.520Z,77.34
2019-05-10T00:25:03.821Z,77.98
2019-05-10T00:27:27.470Z,78.13
2019-05-10T00:29:59.105Z,78.02
2019-05-10T00:32:30.741Z,78.16
2019-05-10T00:35:02.366Z,78.12
2019-05-10T00:37:33.953Z,78.33
2019-05-10T00:40:07.428Z,78.22
2019-05-10T00:42:39.032Z,77.87
2019-05-10T00:45:10.813Z,77.33
2019-05-10T00:47:43.487Z,77.49
2019-05-10T00:50:15.535Z,77.82
2019-05-10T00:52:47.219Z,77.58
2019-05-10T00:55:19.574Z,77.54
2019-05-10T00:57:51.261Z,77.39
2019-05-10T01:00:22.935Z,77.59
2019-05-10T01:02:54.523Z,77.38
2019-05-10T01:05:26.120Z,77.69
2019-05-10T01:07:57.723Z,77.18
2019-05-10T01:10:29.327Z,77.61
2019-05-10T01:13:01.022Z,78.25
2019-05-10T01:15:32.687Z,78.01
2019-05-10T01:18:04.354Z,77.67
2019-05-10T01:20:35.978Z,77.62
2019-05-10T01:23:07.562Z,76.91
2019-05-10T01:25:40.285Z,76.76
2019-05-10T01:28:11.840Z,77.05
2019-05-10T01:30:43.454Z,78.21
2019-05-10T01:33:15.059Z,78.57
2019-05-10T01:35:46.651Z,78.41
2019-05-10T01:38:18.238Z,78.43
2019-05-10T01:40:49.849Z,78.36
2019-05-10T01:43:21.413Z,78.43
2019-05-10T01:45:52.991Z,78.86
2019-05-10T01:48:24.677Z,78.38
2019-05-10T01:50:56.268Z,78.31
2019-05-10T01:53:27.851Z,77.62
2019-05-10T01:56:00.543Z,77.54
2019-05-10T01:58:32.113Z,78.05
2019-05-10T02:01:03.808Z,77.78
2019-05-10T02:03:36.482Z,77.59
2019-05-10T02:06:08.023Z,77.84
2019-05-10T02:08:39.629Z,78.12
2019-05-10T02:11:11.209Z,77.94
2019-05-10T02:13:42.794Z,77.43
2019-05-10T02:16:14.390Z,77.55
2019-05-10T02:18:45.961Z,77.76
2019-05-10T02:21:17.530Z,78.21
2019-05-10T02:23:49.110Z,78.44
2019-05-10T02:26:20.661Z,78.82
2019-05-10T02:28:52.234Z,78.55
2019-05-10T02:31:25.028Z,78.54
2019-05-10T02:33:56.640Z,78.35
2019-05-10T02:36:28.240Z,78.91
2019-05-10T02:38:59.813Z,79.03
2019-05-10T02:41:31.405Z,78.82
2019-05-10T02:44:03.076Z,79.40
2019-05-10T02:46:36.104Z,79.51
2019-05-10T02:49:07.704Z,79.74
2019-05-10T02:51:39.311Z,79.84
2019-05-10T02:54:10.880Z,79.58
2019-05-10T02:56:42.921Z,79.57
2019-05-10T02:59:15.269Z,79.68
2019-05-10T03:01:47.641Z,79.47
2019-05-10T03:04:20.688Z,79.58
2019-05-10T03:07:02.665Z,79.29
2019-05-10T03:09:36.553Z,78.94
2019-05-10T03:12:25.850Z,78.69
2019-05-10T03:14:59.766Z,78.54
2019-05-10T03:17:33.151Z,78.78
2019-05-10T03:20:04.839Z,78.84
2019-05-10T03:22:42.911Z,79.12
2019-05-10T03:25:15.464Z,79.24
2019-05-10T03:27:47.062Z,79.06
2019-05-10T03:30:19.244Z,78.89
2019-05-10T03:32:50.841Z,79.16
2019-05-10T03:35:23.467Z,78.87
2019-05-10T03:37:56.927Z,78.78
2019-05-10T03:40:28.483Z,78.92
2019-05-10T03:43:00.043Z,78.75
2019-05-10T03:45:33.443Z,78.64
2019-05-10T03:48:05.019Z,78.99
2019-05-10T03:50:36.660Z,78.78
2019-05-10T03:53:08.267Z,79.18
2019-05-10T03:55:39.825Z,79.28
2019-05-10T03:58:11.409Z,79.25
2019-05-10T04:00:42.984Z,79.09
2019-05-10T04:03:14.671Z,79.37
2019-05-10T04:05:46.211Z,79.91
2019-05-10T04:08:17.791Z,79.84
2019-05-10T04:10:49.357Z,79.86
2019-05-10T04:13:20.929Z,79.83
2019-05-10T04:15:55.108Z,79.40
2019-05-10T04:18:26.696Z,79.50
2019-05-10T04:20:58.269Z,79.75
2019-05-10T04:23:29.846Z,79.61
2019-05-10T04:26:01.409Z,79.13
2019-05-10T04:28:32.998Z,79.00
2019-05-10T04:31:04.568Z,78.95
2019-05-10T04:33:36.147Z,79.09
2019-05-10T04:36:12.343Z,79.35
2019-05-10T04:38:41.028Z,79.54
2019-05-10T04:41:12.590Z,79.06
2019-05-10T04:43:44.165Z,78.47
2019-05-10T04:46:15.730Z,78.44
2019-05-10T04:48:47.303Z,78.05
2019-05-10T04:51:18.874Z,77.98
2019-05-10T04:53:51.551Z,78.02
2019-05-10T04:56:23.128Z,78.00
2019-05-10T04:58:54.794Z,78.42
2019-05-10T05:01:26.396Z,78.88
2019-05-10T05:03:57.983Z,78.98
2019-05-10T05:06:29.602Z,79.31
2019-05-10T05:09:01.183Z,78.60
2019-05-10T05:11:32.815Z,78.58
2019-05-10T05:14:04.465Z,78.56
2019-05-10T05:16:36.029Z,78.60
2019-05-10T05:19:08.695Z,78.74
2019-05-10T05:21:40.257Z,78.90
2019-05-10T05:24:16.918Z,78.45
2019-05-10T05:26:46.380Z,78.47
2019-05-10T05:29:18.009Z,78.36
2019-05-10T05:31:53.903Z,77.60
2019-05-10T05:34:22.942Z,77.15
2019-05-10T05:36:54.527Z,77.00
2019-05-10T05:39:26.127Z,76.30
2019-05-10T05:41:57.706Z,75.93
2019-05-10T05:44:30.382Z,77.09
2019-05-10T05:47:04.561Z,76.99
2019-05-10T05:49:35.239Z,76.96
2019-05-10T05:52:06.846Z,74.64
2019-05-10T05:54:38.414Z,74.09
2019-05-10T05:57:10.032Z,73.38
2019-05-10T05:59:41.615Z,72.26
2019-05-10T06:02:13.227Z,72.54
2019-05-10T06:04:46.282Z,72.38
2019-05-10T06:07:18.084Z,72.43
2019-05-10T06:09:49.660Z,72.49
2019-05-10T06:12:21.253Z,73.05
2019-05-10T06:14:52.866Z,73.66
2019-05-10T06:17:29.398Z,73.21
2019-05-10T06:20:01.030Z,73.01
2019-05-10T06:22:30.964Z,73.80
2019-05-10T06:25:02.562Z,73.30
2019-05-10T06:27:35.246Z,72.32
2019-05-10T06:30:09.213Z,72.43
2019-05-10T06:32:40.766Z,72.56
2019-05-10T06:35:14.283Z,71.79
2019-05-10T06:37:45.611Z,71.86
2019-05-10T06:40:17.208Z,71.83
2019-05-10T06:42:48.798Z,72.15
2019-05-10T06:45:20.517Z,71.94
2019-05-10T06:47:53.474Z,72.05
2019-05-10T06:50:29.950Z,71.56
2019-05-10T06:53:00.776Z,71.98
2019-05-10T06:55:31.808Z,71.81
2019-05-10T06:58:03.413Z,71.62
2019-05-10T07:00:38.266Z,72.03
2019-05-10T07:03:08.257Z,71.16
2019-05-10T07:05:39.824Z,68.76
2019-05-10T07:08:19.739Z,69.41
2019-05-10T07:10:44.765Z,69.32
2019-05-10T07:13:16.868Z,69.14
2019-05-10T07:15:48.567Z,69.07
2019-05-10T07:18:22.574Z,67.07
2019-05-10T07:20:53.510Z,65.29
2019-05-10T07:23:29.737Z,65.67
2019-05-10T07:25:59.570Z,65.44
2019-05-10T07:28:31.181Z,64.74
2019-05-10T07:31:02.754Z,64.46
2019-05-10T07:33:37.234Z,63.50
2019-05-10T07:36:14.295Z,64.14
2019-05-10T07:38:40.909Z,64.98
2019-05-10T07:41:12.510Z,65.69
2019-05-10T07:43:47.922Z,65.66
2019-05-10T07:46:17.414Z,65.10
2019-05-10T07:48:53.576Z,64.27
2019-05-10T07:51:22.828Z,65.69
2019-05-10T07:53:57.008Z,64.78
2019-05-10T07:56:28.920Z,64.76
2019-05-10T07:59:00.865Z,63.23
2019-05-10T08:01:34.824Z,64.25
2019-05-10T08:04:05.789Z,64.06
2019-05-10T08:06:43.580Z,63.84
2019-05-10T08:09:12.078Z,62.33
2019-05-10T08:11:43.943Z,63.94
2019-05-10T08:14:15.526Z,63.86
2019-05-10T08:16:51.892Z,62.97
2019-05-10T08:19:20.391Z,62.20
2019-05-10T08:21:56.441Z,61.31
2019-05-10T08:24:25.251Z,62.57
2019-05-10T08:27:06.842Z,61.53
2019-05-10T08:29:33.062Z,61.66
2019-05-10T08:32:04.895Z,58.09
2019-05-10T08:34:39.382Z,57.62
2019-05-10T08:37:09.775Z,56.49
2019-05-10T08:39:49.399Z,56.80
2019-05-10T08:42:32.575Z,57.65
2019-05-10T08:44:53.679Z,55.74
2019-05-10T08:47:26.728Z,56.65
2019-05-10T08:50:09.830Z,57.19
2019-05-10T08:52:31.696Z,58.57
2019-05-10T08:55:02.825Z,58.11
2019-05-10T08:57:43.432Z,61.42
2019-05-10T09:00:09.845Z,59.14
2019-05-10T09:02:42.735Z,60.45
2019-05-10T09:05:14.958Z,60.29
2019-05-10T09:07:46.534Z,61.68
2019-05-10T09:10:19.426Z,61.29
2019-05-10T09:12:57.892Z,61.08
2019-05-10T09:15:24.278Z,58.43
2019-05-10T09:17:58.294Z,58.61
2019-05-10T09:20:31.341Z,58.49
2019-05-10T09:23:02.688Z,60.00
2019-05-10T09:25:34.272Z,60.46
2019-05-10T09:28:11.601Z,60.84
2019-05-10T09:30:54.090Z,61.75
2019-05-10T09:33:14.366Z,62.94
2019-05-10T09:35:51.424Z,63.63
2019-05-10T09:38:21.954Z,65.10
2019-05-10T09:40:56.231Z,63.47
2019-05-10T09:43:26.144Z,62.11
2019-05-10T09:45:57.730Z,61.25
2019-05-10T09:48:29.810Z,60.70
2019-05-10T09:51:04.216Z,60.09
2019-05-10T09:53:34.980Z,58.79
2019-05-10T09:56:07.837Z,58.88
2019-05-10T09:58:39.615Z,58.07
2019-05-10T10:01:18.014Z,57.46
2019-05-10T10:03:44.971Z,54.68
2019-05-10T10:06:16.739Z,54.08
2019-05-10T10:08:51.924Z,54.13
2019-05-10T10:11:21.593Z,55.59
2019-05-10T10:13:59.192Z,55.24
2019-05-10T10:16:28.211Z,55.52
2019-05-10T10:18:59.911Z,52.51
2019-05-10T10:21:35.317Z,52.64
2019-05-10T10:24:12.657Z,53.39
2019-05-10T10:26:38.104Z,56.31
2019-05-10T10:29:09.812Z,55.51
2019-05-10T10:31:51.152Z,55.02
2019-05-10T10:34:14.695Z,55.12
2019-05-10T10:36:47.504Z,53.98
2019-05-10T10:39:22.817Z,52.08
2019-05-10T10:41:52.521Z,52.28
2019-05-10T10:44:24.095Z,52.14
2019-05-10T10:46:58.076Z,53.34
2019-05-10T10:49:31.921Z,51.50
2019-05-10T10:52:05.610Z,54.17
2019-05-10T10:54:37.550Z,52.28
2019-05-10T10:57:08.951Z,52.00
2019-05-10T10:59:40.537Z,53.10
2019-05-10T11:02:33.389Z,51.71
2019-05-10T11:04:46.666Z,52.67
2019-05-10T11:07:18.683Z,52.37
2019-05-10T11:09:53.676Z,53.14
2019-05-10T11:12:24.152Z,52.53
2019-05-10T11:14:55.822Z,52.38
2019-05-10T11:17:27.394Z,51.84
2019-05-10T11:20:00.600Z,53.11
2019-05-10T11:22:33.431Z,53.09
2019-05-10T11:25:09.764Z,50.17
2019-05-10T11:27:38.579Z,55.02
2019-05-10T11:30:12.129Z,50.49
2019-05-10T11:32:43.637Z,51.07
2019-05-10T11:35:22.658Z,52.42
2019-05-10T11:37:50.718Z,50.37
2019-05-10T11:40:30.269Z,53.96
2019-05-10T11:42:55.491Z,50.31
2019-05-10T11:45:34.287Z,50.85
2019-05-10T11:48:02.145Z,51.47
2019-05-10T11:50:35.493Z,50.87
2019-05-10T11:53:12.482Z,49.78
2019-05-10T11:55:43.352Z,51.39
2019-05-10T11:58:13.628Z,51.30
2019-05-10T12:00:45.257Z,51.52
2019-05-10T12:03:19.822Z,51.25
2019-05-10T12:05:53.204Z,51.65
2019-05-10T12:08:23.874Z,51.55
2019-05-10T12:13:32.566Z,50.58
2019-05-10T12:16:02.229Z,51.69
2019-05-10T12:18:36.277Z,51.32
2019-05-10T12:21:11.040Z,52.11
2019-05-10T12:23:50.197Z,52.44
2019-05-10T12:26:49.481Z,49.83
2019-05-10T12:27:13.046Z,52.49
2019-05-10T12:28:50.857Z,52.91
2019-05-10T12:31:23.299Z,53.33
2019-05-10T12:34:02.500Z,52.37
2019-05-10T12:36:31.389Z,51.94
2019-05-10T12:39:03.672Z,52.13
2019-05-10T12:41:39.666Z,53.42
2019-05-10T12:44:11.221Z,53.15
2019-05-10T12:46:42.939Z,52.80
2019-05-10T12:49:14.696Z,52.97
2019-05-10T12:51:46.303Z,52.11
2019-05-10T12:54:18.416Z,51.74
2019-05-10T12:56:51.210Z,51.25
2019-05-10T12:59:22.841Z,52.18
2019-05-10T13:01:58.019Z,51.29
2019-05-10T13:04:40.158Z,49.66
2019-05-10T13:07:01.144Z,50.87
2019-05-10T13:09:39.970Z,49.33
2019-05-10T13:12:06.455Z,50.27
2019-05-10T13:14:40.374Z,51.36
2019-05-10T13:17:12.292Z,50.71
2019-05-10T13:19:44.691Z,48.77
2019-05-10T13:22:16.388Z,49.39
2019-05-10T13:24:49.087Z,50.85
2019-05-10T13:27:20.670Z,52.68
2019-05-10T13:29:53.515Z,52.38
2019-05-10T13:32:26.562Z,50.25
2019-05-10T13:34:59.622Z,48.90
2019-05-10T13:37:31.245Z,49.36
2019-05-10T13:40:08.115Z,50.53
2019-05-10T13:42:43.382Z,49.52
2019-05-10T13:45:10.016Z,49.95
2019-05-10T13:47:41.659Z,50.37
2019-05-10T13:50:16.351Z,50.73
2019-05-10T13:52:48.034Z,50.72
2019-05-10T13:55:19.659Z,50.27
2019-05-10T13:57:54.294Z,51.53
2019-05-10T14:00:32.980Z,50.79
2019-05-10T14:03:05.080Z,50.30
2019-05-10T14:05:33.089Z,51.40
2019-05-10T14:08:04.664Z,53.41
2019-05-10T14:10:36.336Z,53.21
2019-05-10T14:13:07.945Z,53.35
2019-05-10T14:15:39.650Z,53.67
2019-05-10T14:18:11.355Z,54.17
2019-05-10T14:20:43.133Z,55.02
2019-05-10T14:23:17.749Z,55.10
2019-05-10T14:25:48.064Z,56.53
2019-05-10T14:28:19.670Z,57.52
2019-05-10T14:30:57.099Z,61.64
2019-05-10T14:33:25.697Z,63.81
2019-05-10T14:36:00.884Z,67.62
2019-05-10T14:38:30.594Z,68.87
2019-05-10T14:41:04.138Z,70.64
2019-05-10T14:43:35.557Z,72.88
2019-05-10T14:46:13.735Z,72.07
2019-05-10T14:48:42.329Z,70.11
2019-05-10T14:51:14.106Z,70.52
2019-05-10T14:53:45.788Z,70.65
2019-05-10T14:56:17.375Z,68.57
2019-05-10T14:58:48.949Z,68.35
2019-05-10T15:01:20.525Z,67.47
2019-05-10T15:03:52.223Z,66.81
2019-05-10T15:06:23.943Z,66.32
2019-05-10T15:08:55.586Z,63.31
2019-05-10T15:11:31.787Z,62.79
2019-05-10T15:14:00.803Z,61.81
2019-05-10T15:16:32.494Z,62.52
2019-05-10T15:19:04.192Z,63.76
2019-05-10T15:21:35.815Z,62.38
2019-05-10T15:24:07.518Z,62.52
2019-05-10T15:26:43.655Z,63.08
2019-05-10T15:29:14.903Z,63.72
2019-05-10T15:31:45.696Z,63.50
2019-05-10T15:34:17.285Z,64.71
2019-05-10T15:36:48.893Z,63.46
2019-05-10T15:39:23.127Z,63.28
2019-05-10T15:41:59.001Z,61.62
2019-05-10T15:44:31.562Z,60.73
2019-05-10T15:47:01.624Z,61.68
2019-05-10T15:49:33.271Z,61.59
2019-05-10T15:52:16.682Z,61.05
2019-05-10T15:54:44.651Z,60.49
2019-05-10T15:57:14.461Z,60.76
2019-05-10T15:59:45.180Z,59.70
2019-05-10T16:02:16.813Z,58.51
2019-05-10T16:04:48.473Z,56.47
2019-05-10T16:07:20.149Z,57.50
2019-05-10T16:09:54.374Z,57.01
2019-05-10T16:12:25.057Z,56.06
2019-05-10T16:14:56.773Z,56.56
2019-05-10T16:17:28.438Z,57.53
2019-05-10T16:20:01.353Z,56.65
2019-05-10T16:22:34.672Z,57.40
2019-05-10T16:25:06.788Z,57.19
2019-05-10T16:27:44.647Z,57.81
2019-05-10T16:30:17.762Z,56.82
2019-05-10T16:32:46.161Z,57.41
2019-05-10T16:35:17.748Z,56.35
2019-05-10T16:37:49.361Z,57.64
2019-05-10T16:40:21.043Z,58.28
2019-05-10T16:42:52.736Z,60.44
2019-05-10T16:45:24.461Z,59.28
2019-05-10T16:47:56.074Z,58.55
2019-05-10T16:50:31.538Z,58.70
2019-05-10T16:53:05.608Z,60.13
2019-05-10T16:55:41.018Z,58.49
2019-05-10T16:58:09.621Z,57.58
2019-05-10T17:00:46.117Z,59.90
2019-05-10T17:03:18.526Z,60.53
2019-05-10T17:05:53.609Z,61.15
2019-05-10T17:08:22.544Z,62.02
2019-05-10T17:10:54.168Z,62.12
2019-05-10T17:13:25.846Z,62.95
2019-05-10T17:15:58.496Z,63.63
2019-05-10T17:18:31.194Z,63.91
2019-05-10T17:21:02.949Z,63.84
2019-05-10T17:23:34.575Z,64.20
2019-05-10T17:26:06.264Z,64.38
2019-05-10T17:28:37.874Z,64.42
2019-05-10T17:31:09.798Z,64.42
2019-05-10T17:33:42.665Z,64.58
2019-05-10T17:36:19.742Z,64.47
2019-05-10T17:38:53.577Z,64.67
2019-05-10T17:41:24.714Z,65.28
2019-05-10T17:43:55.741Z,65.71
2019-05-10T17:46:27.523Z,65.92
2019-05-10T17:48:59.177Z,65.81
2019-05-10T17:51:30.915Z,66.09
2019-05-10T17:54:03.733Z,66.08
2019-05-10T17:56:38.901Z,65.99
2019-05-10T17:59:12.039Z,65.73
2019-05-10T18:01:43.490Z,65.59
2019-05-10T18:04:15.160Z,65.31
2019-05-10T18:06:46.828Z,65.71
2019-05-10T18:09:19.623Z,66.38
2019-05-10T18:11:51.275Z,67.12
2019-05-10T18:14:22.986Z,66.75
2019-05-10T18:16:54.609Z,66.98
2019-05-10T18:19:26.585Z,65.91
2019-05-10T18:22:00.752Z,65.61
2019-05-10T18:24:36.457Z,65.59
2019-05-10T18:27:05.980Z,66.42
2019-05-10T18:29:37.671Z,67.75
2019-05-10T18:32:11.278Z,68.54
2019-05-10T18:34:43.191Z,69.03
2019-05-10T18:37:15.805Z,69.58
2019-05-10T18:39:53.006Z,70.01
2019-05-10T18:42:25.310Z,70.29
2019-05-10T18:44:56.445Z,70.72
2019-05-10T18:47:28.065Z,70.79
2019-05-10T18:49:59.733Z,70.87
2019-05-10T18:52:31.386Z,71.06
2019-05-10T18:55:05.588Z,71.46
2019-05-10T18:57:38.876Z,71.31
2019-05-10T19:00:12.398Z,71.02
2019-05-10T19:02:49.783Z,71.15
2019-05-10T19:05:19.245Z,71.13
2019-05-10T19:08:02.574Z,71.68
2019-05-10T19:10:24.312Z,71.53
2019-05-10T19:13:01.040Z,71.55
2019-05-10T19:15:30.293Z,71.83
2019-05-10T19:18:01.895Z,72.08
2019-05-10T19:20:33.609Z,72.47
2019-05-10T19:23:05.669Z,72.99
2019-05-10T19:25:37.903Z,73.00
2019-05-10T19:28:11.407Z,72.91
2019-05-10T19:30:44.034Z,73.03
2019-05-10T19:33:15.682Z,72.98
2019-05-10T19:35:47.321Z,72.83
2019-05-10T19:38:18.976Z,72.17
2019-05-10T19:40:50.623Z,71.79
2019-05-10T19:43:24.039Z,71.49
2019-05-10T19:45:57.400Z,71.43
2019-05-10T19:48:35.128Z,72.25
2019-05-10T19:51:09.559Z,72.95
2019-05-10T19:53:42.130Z,72.84
2019-05-10T19:56:11.478Z,73.26
2019-05-10T19:58:43.088Z,73.63
2019-05-10T20:01:14.761Z,73.58
2019-05-10T20:03:47.466Z,73.85
2019-05-10T20:06:19.126Z,73.83
2019-05-10T20:08:50.791Z,73.57
2019-05-10T20:11:22.422Z,72.80
2019-05-10T20:13:54.048Z,72.56
2019-05-10T20:16:25.870Z,72.51
2019-05-10T20:18:57.563Z,72.26
2019-05-10T20:21:29.269Z,72.60
2019-05-10T20:24:01.233Z,73.60
2019-05-10T20:26:33.999Z,73.81
2019-05-10T20:29:05.627Z,74.31
2019-05-10T20:31:38.826Z,74.71
2019-05-10T20:34:10.658Z,74.86
2019-05-10T20:36:42.287Z,75.28
2019-05-10T20:39:13.995Z,75.65
2019-05-10T20:41:45.676Z,75.83
2019-05-10T20:44:18.283Z,75.82
2019-05-10T20:46:51.122Z,75.61
2019-05-10T20:49:23.210Z,75.40
2019-05-10T20:51:54.836Z,75.29
2019-05-10T20:54:26.529Z,75.77
2019-05-10T20:56:58.235Z,75.93
2019-05-10T20:59:29.869Z,76.52
2019-05-10T21:02:01.731Z,76.64
2019-05-10T21:04:33.373Z,76.52
2019-05-10T21:07:06.152Z,76.41
2019-05-10T21:09:37.759Z,76.57
2019-05-10T21:12:11.103Z,76.12
2019-05-10T21:14:42.709Z,75.89
2019-05-10T21:17:14.353Z,75.86
2019-05-10T21:19:47.560Z,75.96
2019-05-10T21:22:19.161Z,76.53
2019-05-10T21:24:50.968Z,76.93
2019-05-10T21:27:22.552Z,76.81
2019-05-10T21:29:54.139Z,76.91
2019-05-10T21:32:25.876Z,76.98
2019-05-10T21:34:57.694Z,76.95
2019-05-10T21:37:30.954Z,77.23
2019-05-10T21:40:02.584Z,77.17
2019-05-10T21:42:34.264Z,77.29
2019-05-10T21:45:06.314Z,77.46
2019-05-10T21:47:50.645Z,77.60
2019-05-10T21:50:11.562Z,77.44
2019-05-10T21:52:43.183Z,77.63
2019-05-10T21:55:14.786Z,77.78
2019-05-10T21:57:46.414Z,77.59
2019-05-10T22:00:19.953Z,77.06
2019-05-10T22:02:53.165Z,76.91
2019-05-10T22:05:24.795Z,77.25
2019-05-10T22:07:56.388Z,77.79
2019-05-10T22:10:28.056Z,78.44
2019-05-10T22:12:59.673Z,78.72
2019-05-10T22:15:31.349Z,78.36
2019-05-10T22:18:02.971Z,78.02
2019-05-10T22:20:35.640Z,78.50
2019-05-10T22:23:07.260Z,78.77
2019-05-10T22:25:38.834Z,78.40
2019-05-10T22:28:10.514Z,78.42
2019-05-10T22:30:42.103Z,78.76
2019-05-10T22:33:13.699Z,78.91
2019-05-10T22:35:45.330Z,79.24
2019-05-10T22:38:16.956Z,79.55
2019-05-10T22:40:48.597Z,79.65
2019-05-10T22:43:20.242Z,79.75
2019-05-10T22:45:51.886Z,79.44
2019-05-10T22:48:23.454Z,79.20
2019-05-10T22:50:55.064Z,78.94
2019-05-10T22:53:26.662Z,78.57
2019-05-10T22:55:58.288Z,78.44
2019-05-10T22:58:29.855Z,79.04
2019-05-10T23:01:01.508Z,79.54
2019-05-10T23:03:34.203Z,79.57
2019-05-10T23:06:05.787Z,79.36
2019-05-10T23:08:37.391Z,80.08
2019-05-10T23:11:08.957Z,80.42
2019-05-10T23:13:40.596Z,80.64
2019-05-10T23:16:12.239Z,80.68
2019-05-10T23:18:43.845Z,80.39
2019-05-10T23:21:16.946Z,80.87
2019-05-10T23:23:48.494Z,80.78
2019-05-10T23:26:20.081Z,80.54
2019-05-10T23:28:51.692Z,80.22
2019-05-10T23:31:23.281Z,80.70
2019-05-10T23:33:54.897Z,81.03
2019-05-10T23:36:26.460Z,81.29
2019-05-10T23:38:58.074Z,81.38
2019-05-10T23:41:29.663Z,81.68
2019-05-10T23:44:01.285Z,81.56
2019-05-10T23:46:32.886Z,81.95
2019-05-10T23:49:04.434Z,82.19
2019-05-10T23:51:36.029Z,82.31
2019-05-10T23:54:07.613Z,81.54
2019-05-10T23:56:39.219Z,81.49
2019-05-10T23:59:10.796Z,82.25
